This is the latest recevied weather packets stored in our database for station/object KK6LZB. If no packets are shown the sender has not sent any weather packets the latest 1 day(s).
| Time | Temp. | Humidity | Pressure | Rain* | Wind** | Luminosity | Snow |
|---|---|---|---|---|---|---|---|
| 1778082694 | 15° C | 87% | 1020.4 hPa | 0 mm | - | 41 W/m² | - |
| 1778080644 | 14.44° C | 86% | 1020.6 hPa | 0 mm | - | 40 W/m² | - |
| 1778080340 | 13.89° C | 87% | 1020.5 hPa | 0 mm | - | 39 W/m² | - |
| 1778079127 | 12.78° C | 89% | 1020.4 hPa | 0 mm | - | 33 W/m² | - |
| 1778078521 | 12.22° C | 90% | 1020.5 hPa | 0 mm | - | 30 W/m² | - |
| 1778078219 | 12.22° C | 91% | 1020.4 hPa | 0 mm | - | 29 W/m² | - |
| 1778077615 | 11.67° C | 92% | 1020.4 hPa | 0 mm | - | 28 W/m² | - |
| 1778077010 | 11.67° C | 93% | 1020.3 hPa | 0 mm | - | 26 W/m² | - |
| 1778076708 | 11.11° C | 93% | 1020.4 hPa | 0 mm | - | 24 W/m² | - |
| 1778073374 | 9.44° C | 97% | 1019.9 hPa | 0 mm | - | 8 W/m² | - |
| 1778073070 | 8.89° C | 97% | 1019.8 hPa | 0 mm | - | 6 W/m² | - |
| 1778072163 | 8.89° C | 96% | 1019.7 hPa | 0 mm | - | 1 W/m² | - |
| 1778070347 | 8.89° C | 97% | 1019.3 hPa | 0 mm | - | 0 W/m² | - |
| 1778069743 | 8.89° C | 97% | 1019.4 hPa | 0 mm | - | 0 W/m² | - |
| 1778069137 | 8.89° C | 96% | 1019.3 hPa | 0 mm | - | 0 W/m² | - |
| 1778068834 | 8.89° C | 96% | 1019.2 hPa | 0 mm | - | 0 W/m² | - |
| 1778067626 | 8.89° C | 95% | 1019.4 hPa | 0 mm | - | 0 W/m² | - |
| 1778067323 | 8.89° C | 95% | 1019.3 hPa | 0 mm | - | 0 W/m² | - |
| 1778065809 | 9.44° C | 96% | 1019.3 hPa | 0 mm | - | 0 W/m² | - |
| 1778065507 | 9.44° C | 96% | 1019.4 hPa | 0 mm | - | 0 W/m² | - |
| 1778064597 | 9.44° C | 97% | 1019.4 hPa | 0 mm | - | 0 W/m² | - |
| 1778064295 | 9.44° C | 97% | 1019.4 hPa | 0 mm | - | 0 W/m² | - |
| 1778063993 | 9.44° C | 97% | 1019.4 hPa | 0 mm | - | 0 W/m² | - |
| 1778062478 | 9.44° C | 96% | 1019.2 hPa | 0 mm | - | 0 W/m² | - |
| 1778060965 | 10° C | 96% | 1019.4 hPa | 0 mm | - | 0 W/m² | - |
* Rain latest hour (hover to see other rain measurements)
** Current wind speed in m/s (hover to see current wind gust speed)